Time;durP1;ratioP1;P1;durP2;ratioP2;P2;SDS_P1;SDS_P2;PMS_P1;PMS_P2;Temp;Humidity;BMP_temperature;BMP_pressure;BME280_temperature;BME280_humidity;BME280_pressure;Samples;Min_cycle;Max_cycle;Signal;HPM_P1;HPM_P2
2022/08/26 00:00:23;;;;;;;15.05;7.88;;;30.20;65.50;;;;;;4992693;28;20026;-83
2022/08/26 00:02:49;;;;;;;12.65;7.68;;;30.20;65.50;;;;;;4976550;28;20031;-85
2022/08/26 00:05:15;;;;;;;16.40;8.35;;;30.20;65.70;;;;;;4976354;28;20038;-85
2022/08/26 00:07:41;;;;;;;13.25;7.90;;;30.10;65.80;;;;;;4992513;28;20133;-85
2022/08/26 00:10:07;;;;;;;12.65;7.70;;;30.20;65.70;;;;;;4992866;28;20026;-89
2022/08/26 00:12:33;;;;;;;11.52;7.47;;;30.20;65.80;;;;;;4993083;28;20026;-83
2022/08/26 00:14:59;;;;;;;13.18;7.97;;;30.20;65.70;;;;;;4993592;28;20050;-80
2022/08/26 00:17:26;;;;;;;19.30;8.32;;;30.30;65.50;;;;;;4976384;28;20034;-85
2022/08/26 00:19:51;;;;;;;15.10;8.00;;;30.30;65.40;;;;;;4996548;28;20057;-83
2022/08/26 00:22:17;;;;;;;14.30;7.60;;;30.30;65.50;;;;;;4996874;28;20054;-86
2022/08/26 00:24:43;;;;;;;18.67;8.00;;;30.30;65.50;;;;;;4980505;28;20041;-85
2022/08/26 00:27:09;;;;;;;19.08;8.63;;;30.30;65.60;;;;;;4997543;28;20045;-87
2022/08/26 00:29:34;;;;;;;13.73;7.57;;;30.30;65.40;;;;;;4996633;28;20393;-86
2022/08/26 00:32:01;;;;;;;15.55;8.57;;;30.20;65.60;;;;;;4997635;28;20023;-85
2022/08/26 00:34:27;;;;;;;14.68;8.50;;;30.30;65.60;;;;;;4996538;28;20032;-84
2022/08/26 00:36:53;;;;;;;12.43;7.45;;;30.20;65.70;;;;;;4997332;28;20027;-88
2022/08/26 00:39:19;;;;;;;16.55;8.80;;;30.10;66.40;;;;;;4996389;28;20026;-87
2022/08/26 00:41:45;;;;;;;11.40;7.57;;;29.90;66.30;;;;;;4997755;28;20077;-87
2022/08/26 00:44:11;;;;;;;16.60;8.48;;;30.00;66.60;;;;;;4980372;28;20034;-88
2022/08/26 00:46:42;;;;;;;12.05;7.25;;;29.60;67.20;;;;;;4980080;28;20054;-86
2022/08/26 00:49:24;;;;;;;15.38;8.35;;;29.50;67.40;;;;;;4980090;28;20065;-86
2022/08/26 00:51:53;;;;;;;12.82;8.68;;;29.60;67.20;;;;;;4980068;28;20026;-85
2022/08/26 00:54:22;;;;;;;14.20;8.05;;;29.50;67.30;;;;;;4997399;28;20050;-86
2022/08/26 00:56:54;;;;;;;15.35;8.18;;;29.60;67.30;;;;;;4980011;28;20063;-86
2022/08/26 00:59:21;;;;;;;14.10;8.65;;;29.60;67.30;;;;;;4997231;28;20105;-81
2022/08/26 01:01:47;;;;;;;14.45;8.25;;;29.50;67.70;;;;;;4997099;28;20050;-85
2022/08/26 01:04:16;;;;;;;15.80;8.63;;;29.40;67.50;;;;;;4979936;28;20054;-85
2022/08/26 01:06:42;;;;;;;14.65;8.73;;;29.40;68.10;;;;;;4996881;28;20034;-83
2022/08/26 01:09:08;;;;;;;11.77;8.20;;;29.40;67.50;;;;;;4997051;28;20033;-84
2022/08/26 01:11:35;;;;;;;16.35;9.10;;;29.50;67.80;;;;;;4996911;28;20385;-85
2022/08/26 01:14:03;;;;;;;12.93;8.18;;;29.50;67.50;;;;;;4996854;28;20026;-85
2022/08/26 01:16:29;;;;;;;17.65;8.02;;;29.40;68.00;;;;;;4979558;28;20126;-84
2022/08/26 01:18:58;;;;;;;15.70;8.73;;;29.30;67.70;;;;;;4996938;28;20113;-83
2022/08/26 01:21:58;;;;;;;16.83;9.13;;;29.30;67.90;;;;;;4996490;28;20077;-87
2022/08/26 01:24:26;;;;;;;13.05;8.90;;;29.30;67.60;;;;;;4920974;29;20055;-86
2022/08/26 01:27:03;;;;;;;13.40;7.97;;;29.40;67.70;;;;;;4920933;29;20151;-88
2022/08/26 01:29:32;;;;;;;13.80;8.40;;;29.50;67.40;;;;;;4936280;29;20028;-86
2022/08/26 01:31:58;;;;;;;14.20;8.95;;;29.30;68.20;;;;;;4936646;29;20035;-81
2022/08/26 01:34:28;;;;;;;17.02;9.43;;;29.30;67.90;;;;;;4936776;29;20040;-85
2022/08/26 01:37:01;;;;;;;18.27;8.98;;;29.50;67.40;;;;;;4920818;29;20027;-84
2022/08/26 01:39:27;;;;;;;14.95;8.20;;;29.30;68.10;;;;;;4936361;29;20040;-87
2022/08/26 01:41:55;;;;;;;14.27;8.40;;;29.40;67.70;;;;;;4920824;29;20190;-87
2022/08/26 01:44:24;;;;;;;11.38;7.50;;;29.30;68.10;;;;;;4920838;29;20625;-85
2022/08/26 01:46:51;;;;;;;14.98;9.15;;;29.30;68.30;;;;;;4936667;29;20040;-88
2022/08/26 01:49:19;;;;;;;13.73;9.38;;;29.30;67.70;;;;;;4936378;29;20403;-87
2022/08/26 01:51:47;;;;;;;13.50;9.05;;;29.50;67.40;;;;;;4920774;29;20062;-79
2022/08/26 01:54:13;;;;;;;13.40;9.43;;;29.50;67.10;;;;;;4920493;29;20035;-84
2022/08/26 01:56:39;;;;;;;15.73;9.13;;;29.60;67.00;;;;;;4920372;29;20114;-87
2022/08/26 01:59:09;;;;;;;13.68;8.98;;;29.70;66.90;;;;;;4945404;28;20046;-85
2022/08/26 02:01:36;;;;;;;17.92;9.52;;;29.70;66.60;;;;;;4996382;28;20026;-84
2022/08/26 02:04:14;;;;;;;16.73;10.02;;;29.60;67.20;;;;;;4995951;28;20516;-79
2022/08/26 02:06:40;;;;;;;13.38;8.50;;;29.60;67.00;;;;;;4995800;28;20105;-83
2022/08/26 02:09:06;;;;;;;15.60;9.30;;;29.40;67.90;;;;;;4996043;28;20026;-84
2022/08/26 02:11:33;;;;;;;20.92;9.20;;;29.30;67.50;;;;;;4995863;28;20077;-84
2022/08/26 02:14:04;;;;;;;15.48;9.13;;;29.40;67.10;;;;;;4978158;28;20027;-88
2022/08/26 02:16:35;;;;;;;15.68;8.52;;;29.40;67.00;;;;;;4978022;28;20461;-83
2022/08/26 02:19:02;;;;;;;14.05;8.75;;;29.40;67.30;;;;;;4996012;28;20113;-83
2022/08/26 02:21:29;;;;;;;11.70;8.35;;;29.30;67.70;;;;;;4995618;28;20062;-89
2022/08/26 02:23:55;;;;;;;16.55;9.10;;;29.10;68.20;;;;;;4995187;28;20042;-81
2022/08/26 02:26:24;;;;;;;15.55;10.68;;;28.90;68.00;;;;;;4995647;28;20026;-88
2022/08/26 02:28:53;;;;;;;19.38;9.07;;;29.10;67.60;;;;;;4978392;28;20049;-88
2022/08/26 02:31:19;;;;;;;14.65;9.90;;;29.10;67.70;;;;;;4978106;28;20022;-87
2022/08/26 02:33:45;;;;;;;19.20;9.70;;;29.30;67.20;;;;;;4978178;28;20082;-86
2022/08/26 02:36:11;;;;;;;16.98;10.20;;;29.30;67.00;;;;;;4995269;28;20030;-85
2022/08/26 02:38:36;;;;;;;20.05;9.93;;;29.40;66.70;;;;;;4995607;28;20438;-88
2022/08/26 02:41:03;;;;;;;14.32;8.85;;;29.40;67.00;;;;;;4993954;28;20374;-88
2022/08/26 02:43:28;;;;;;;20.80;10.55;;;29.20;67.70;;;;;;4994945;28;20050;-88
2022/08/26 02:45:54;;;;;;;13.07;9.50;;;29.00;68.00;;;;;;4995339;28;20026;-84
2022/08/26 02:48:20;;;;;;;15.07;9.23;;;29.00;67.60;;;;;;4977668;28;20057;-80
2022/08/26 02:50:47;;;;;;;16.52;8.05;;;29.10;67.20;;;;;;4995240;28;20073;-90
2022/08/26 02:53:13;;;;;;;12.25;8.13;;;29.10;67.20;;;;;;4977526;28;20022;-83
2022/08/26 02:55:40;;;;;;;13.07;8.18;;;28.90;67.90;;;;;;4977905;28;20362;-89
2022/08/26 02:58:07;;;;;;;14.18;8.95;;;28.90;67.70;;;;;;4977421;28;20029;-80
2022/08/26 03:00:35;;;;;;;14.88;8.98;;;28.90;67.70;;;;;;4977767;28;20030;-90
2022/08/26 03:03:01;;;;;;;17.90;9.40;;;28.90;67.90;;;;;;4994786;28;20112;-79
2022/08/26 03:05:27;;;;;;;17.83;10.38;;;28.90;67.60;;;;;;4994882;28;20054;-78
2022/08/26 03:07:52;;;;;;;14.02;8.90;;;28.90;67.20;;;;;;4977416;28;20441;-80
2022/08/26 03:10:20;;;;;;;17.52;10.98;;;28.90;67.80;;;;;;4993624;28;20126;-83
2022/08/26 03:12:46;;;;;;;16.88;9.35;;;28.90;67.40;;;;;;4977360;28;20037;-85
2022/08/26 03:15:13;;;;;;;15.60;9.85;;;29.00;67.20;;;;;;4993366;28;20046;-84
2022/08/26 03:17:39;;;;;;;16.25;10.70;;;29.10;67.20;;;;;;4977536;28;20033;-88
2022/08/26 03:20:08;;;;;;;18.17;10.00;;;29.10;67.50;;;;;;4994576;28;20022;-89
2022/08/26 03:22:36;;;;;;;23.13;11.10;;;29.10;67.30;;;;;;4994468;28;20070;-79
2022/08/26 03:25:04;;;;;;;15.23;9.48;;;29.20;67.00;;;;;;4994478;28;20049;-82
2022/08/26 03:27:30;;;;;;;16.35;10.15;;;29.20;66.90;;;;;;4993528;28;20026;-83
2022/08/26 03:32:40;;;;;;;19.45;10.95;;;29.30;66.60;;;;;;4994622;28;20038;-90
2022/08/26 03:35:06;;;;;;;13.15;8.60;;;29.30;66.40;;;;;;4994439;28;20018;-80
2022/08/26 03:37:32;;;;;;;13.30;8.27;;;29.30;66.30;;;;;;4977013;28;20378;-82
2022/08/26 03:39:57;;;;;;;14.57;9.40;;;29.00;66.90;;;;;;4993207;28;20030;-82
2022/08/26 03:42:23;;;;;;;17.33;8.70;;;28.80;67.90;;;;;;4993913;28;20042;-87
2022/08/26 03:44:50;;;;;;;17.10;9.75;;;28.50;68.60;;;;;;4994021;28;20437;-85
2022/08/26 03:47:17;;;;;;;14.23;8.63;;;28.50;68.50;;;;;;4977127;28;20022;-81
2022/08/26 03:49:42;;;;;;;14.95;9.93;;;28.50;68.40;;;;;;4992698;28;20034;-89
2022/08/26 03:52:09;;;;;;;16.30;8.43;;;28.40;69.20;;;;;;4993911;28;20056;-88
2022/08/26 03:54:35;;;;;;;19.30;10.07;;;28.40;69.10;;;;;;4975859;28;20030;-89
2022/08/26 03:57:01;;;;;;;18.25;8.85;;;28.50;68.30;;;;;;4976663;28;20030;-86
2022/08/26 03:59:26;;;;;;;17.20;9.15;;;28.30;68.50;;;;;;4976622;28;20061;-83
2022/08/26 04:01:52;;;;;;;17.17;8.60;;;28.20;69.10;;;;;;4994081;28;20077;-79
2022/08/26 04:04:18;;;;;;;10.88;7.30;;;28.20;68.90;;;;;;4994035;28;20057;-89
2022/08/26 04:06:44;;;;;;;16.52;10.20;;;28.20;68.60;;;;;;4993814;28;20045;-85
2022/08/26 04:09:16;;;;;;;19.65;10.57;;;28.30;68.70;;;;;;4976750;28;20030;-86
2022/08/26 04:11:44;;;;;;;18.52;11.05;;;28.40;67.80;;;;;;4994054;28;20381;-81
2022/08/26 04:14:17;;;;;;;15.98;10.23;;;28.60;67.50;;;;;;4976345;28;20027;-91
2022/08/26 04:16:43;;;;;;;18.50;9.90;;;28.70;67.10;;;;;;4976464;28;20126;-89
2022/08/26 04:19:11;;;;;;;21.98;10.63;;;28.60;68.00;;;;;;4976418;28;20038;-80
2022/08/26 04:21:37;;;;;;;15.85;9.52;;;28.50;68.30;;;;;;4994047;28;20351;-92
2022/08/26 04:24:04;;;;;;;12.40;8.93;;;28.60;67.90;;;;;;4976571;28;20041;-88
2022/08/26 04:26:35;;;;;;;18.77;10.40;;;28.70;67.70;;;;;;4976206;28;20034;-79
2022/08/26 04:29:05;;;;;;;14.40;9.25;;;28.70;67.90;;;;;;4993801;28;20109;-90
2022/08/26 04:31:33;;;;;;;16.23;9.05;;;28.90;67.50;;;;;;4976644;28;20034;-92
2022/08/26 04:33:59;;;;;;;15.57;9.30;;;28.90;67.50;;;;;;4975752;28;20018;-92
2022/08/26 04:36:24;;;;;;;17.95;8.43;;;29.00;67.20;;;;;;4993548;28;20080;-94
2022/08/26 04:38:50;;;;;;;22.65;8.70;;;29.10;67.10;;;;;;4976540;28;20026;-91
2022/08/26 04:41:18;;;;;;;16.42;9.45;;;28.90;67.90;;;;;;4993824;28;20019;-91
2022/08/26 04:43:45;;;;;;;17.60;10.23;;;29.00;67.80;;;;;;4993673;28;20080;-92
2022/08/26 04:46:14;;;;;;;16.60;8.85;;;29.30;67.40;;;;;;4976494;28;20029;-92
2022/08/26 04:48:41;;;;;;;15.73;9.20;;;29.30;67.00;;;;;;4993469;28;20038;-86
2022/08/26 04:51:07;;;;;;;14.48;8.40;;;29.40;66.90;;;;;;4993762;28;20050;-92
2022/08/26 04:53:32;;;;;;;14.20;8.90;;;29.50;66.70;;;;;;4976610;28;20381;-84
2022/08/26 04:55:58;;;;;;;15.27;8.95;;;29.50;67.00;;;;;;4992354;28;20465;-84
2022/08/26 04:58:24;;;;;;;20.40;9.18;;;29.50;66.90;;;;;;4993408;28;20026;-91
2022/08/26 05:00:52;;;;;;;21.83;9.60;;;29.60;67.00;;;;;;4976201;28;20042;-91
2022/08/26 05:03:18;;;;;;;17.42;9.82;;;29.60;67.10;;;;;;4993328;28;20030;-90
2022/08/26 05:05:46;;;;;;;17.67;8.73;;;29.70;67.10;;;;;;4995307;28;20061;-92
2022/08/26 05:08:14;;;;;;;13.45;8.98;;;29.60;67.40;;;;;;4997130;28;20125;-85
2022/08/26 05:10:41;;;;;;;16.45;8.43;;;29.60;67.70;;;;;;4979743;28;20037;-89
2022/08/26 05:13:07;;;;;;;16.88;8.82;;;29.50;67.90;;;;;;4979652;28;20126;-90
2022/08/26 05:15:34;;;;;;;20.35;8.60;;;29.70;67.50;;;;;;4996914;28;20421;-89
2022/08/26 05:18:04;;;;;;;15.77;8.00;;;29.80;67.10;;;;;;4980007;28;20026;-88
2022/08/26 05:20:31;;;;;;;15.50;8.50;;;29.90;66.90;;;;;;4979632;28;20030;-91
2022/08/26 05:22:59;;;;;;;17.05;7.53;;;30.00;66.90;;;;;;4996858;28;20027;-91
2022/08/26 05:25:26;;;;;;;15.40;7.55;;;30.10;66.80;;;;;;4997109;28;20036;-89
2022/08/26 05:27:52;;;;;;;18.48;7.85;;;30.20;67.00;;;;;;4996740;28;20468;-85
2022/08/26 05:30:18;;;;;;;14.57;7.55;;;30.10;67.30;;;;;;4979516;28;20034;-90
2022/08/26 05:32:45;;;;;;;15.63;8.20;;;29.90;67.40;;;;;;4979496;28;20026;-91
2022/08/26 05:35:11;;;;;;;19.45;8.30;;;30.00;67.50;;;;;;4979197;28;20038;-88
2022/08/26 05:37:37;;;;;;;18.70;8.20;;;30.10;67.40;;;;;;4996914;28;20118;-89
2022/08/26 05:40:04;;;;;;;16.70;7.53;;;30.30;67.30;;;;;;4979141;28;20074;-87
2022/08/26 05:42:29;;;;;;;16.65;7.82;;;30.50;67.00;;;;;;4996440;28;20050;-89
2022/08/26 05:44:55;;;;;;;15.80;6.63;;;30.60;66.70;;;;;;4995514;28;20133;-88
2022/08/26 05:47:21;;;;;;;20.70;7.40;;;30.50;67.20;;;;;;4996485;28;20474;-88
2022/08/26 05:49:47;;;;;;;15.77;7.50;;;30.50;67.00;;;;;;4979127;28;20042;-83
2022/08/26 05:52:12;;;;;;;19.92;6.78;;;30.50;65.50;;;;;;4996583;28;20030;-86
2022/08/26 05:54:39;;;;;;;17.92;6.50;;;30.60;63.50;;;;;;4996581;28;20026;-86
2022/08/26 05:57:04;;;;;;;14.85;5.53;;;30.70;62.70;;;;;;4996302;28;20426;-87
2022/08/26 05:59:30;;;;;;;17.75;5.85;;;30.90;62.50;;;;;;4996243;28;20052;-86
2022/08/26 06:01:56;;;;;;;17.85;5.82;;;31.10;62.40;;;;;;4996257;28;20029;-87
2022/08/26 06:04:24;;;;;;;13.98;6.72;;;31.20;61.80;;;;;;4994844;28;20045;-83
2022/08/26 06:06:50;;;;;;;10.00;5.68;;;31.30;62.90;;;;;;4996245;28;20056;-87
2022/08/26 06:09:16;;;;;;;17.90;6.68;;;31.30;63.00;;;;;;4996379;28;20029;-86
2022/08/26 06:11:42;;;;;;;19.65;6.63;;;31.30;63.20;;;;;;4978331;28;20030;-82
2022/08/26 06:14:08;;;;;;;16.25;5.63;;;31.30;64.10;;;;;;4995794;28;20030;-90
2022/08/26 06:16:37;;;;;;;17.60;7.10;;;31.10;62.80;;;;;;4993816;28;20046;-87
2022/08/26 06:19:04;;;;;;;15.80;6.15;;;30.60;63.00;;;;;;4978605;28;20097;-88
2022/08/26 06:21:37;;;;;;;16.77;5.80;;;30.80;63.70;;;;;;4995922;28;20076;-91
2022/08/26 06:26:53;;;;;;;15.55;6.50;;;31.10;63.70;;;;;;4996030;28;20057;-85
2022/08/26 06:29:22;;;;;;;13.70;6.90;;;31.20;62.70;;;;;;4978623;28;20026;-89
2022/08/26 06:31:48;;;;;;;15.90;6.60;;;31.50;63.00;;;;;;4994609;28;20081;-89
2022/08/26 06:34:14;;;;;;;17.67;6.55;;;31.50;62.20;;;;;;4978251;28;20033;-87
2022/08/26 06:36:42;;;;;;;14.95;6.03;;;31.70;62.70;;;;;;4978368;28;20386;-89
2022/08/26 06:39:09;;;;;;;15.80;5.45;;;31.90;62.10;;;;;;4995449;28;20038;-84
2022/08/26 06:41:36;;;;;;;17.48;6.30;;;32.00;61.80;;;;;;4995467;28;20049;-88
2022/08/26 06:44:04;;;;;;;12.85;5.60;;;32.30;61.50;;;;;;4995397;28;20038;-81
2022/08/26 06:46:31;;;;;;;16.75;5.93;;;32.40;60.30;;;;;;4995058;28;20031;-85
2022/08/26 06:48:57;;;;;;;15.98;5.55;;;32.40;60.00;;;;;;4978008;28;20482;-86
2022/08/26 06:51:29;;;;;;;17.58;6.35;;;32.50;59.70;;;;;;4995340;28;20424;-91
2022/08/26 06:53:58;;;;;;;21.83;5.70;;;32.50;60.00;;;;;;4978319;28;20385;-89
2022/08/26 06:56:27;;;;;;;18.23;5.82;;;32.40;59.70;;;;;;4977950;28;20027;-81
2022/08/26 06:58:53;;;;;;;20.92;6.40;;;32.20;60.80;;;;;;4977779;28;20461;-80
2022/08/26 07:01:25;;;;;;;15.23;5.45;;;32.20;60.90;;;;;;4994456;28;20027;-84
2022/08/26 07:03:54;;;;;;;16.42;5.60;;;32.40;59.70;;;;;;4977446;28;20081;-80
2022/08/26 07:06:20;;;;;;;17.17;5.95;;;32.30;60.30;;;;;;4977058;28;20033;-80
2022/08/26 07:08:50;;;;;;;14.02;5.88;;;32.60;60.60;;;;;;4977154;28;20135;-80
2022/08/26 07:11:17;;;;;;;14.00;5.38;;;32.80;59.60;;;;;;4993468;28;20034;-91
2022/08/26 07:13:43;;;;;;;13.35;5.50;;;32.90;59.50;;;;;;4994018;28;20034;-85
2022/08/26 07:16:12;;;;;;;16.58;6.13;;;33.00;59.30;;;;;;4977181;28;20051;-90
2022/08/26 07:18:40;;;;;;;16.83;5.82;;;33.30;58.90;;;;;;4993564;28;20057;-85
2022/08/26 07:21:09;;;;;;;19.35;5.88;;;33.40;58.80;;;;;;4977749;28;20022;-87
2022/08/26 07:23:35;;;;;;;13.50;5.68;;;33.40;58.40;;;;;;4977668;28;20045;-93
2022/08/26 07:26:10;;;;;;;12.02;5.72;;;33.30;58.60;;;;;;4977535;28;20023;-83
2022/08/26 07:28:37;;;;;;;14.98;5.82;;;32.90;59.70;;;;;;4976852;28;20054;-80
2022/08/26 07:31:07;;;;;;;13.73;5.55;;;33.10;60.20;;;;;;4994666;28;20049;-83
2022/08/26 07:33:33;;;;;;;16.02;5.72;;;33.30;59.50;;;;;;4977100;28;20466;-82
2022/08/26 07:35:59;;;;;;;17.17;5.55;;;33.50;58.80;;;;;;4976682;28;20026;-84
2022/08/26 07:38:25;;;;;;;15.95;5.70;;;33.70;58.50;;;;;;4994276;28;20027;-84
2022/08/26 07:40:51;;;;;;;16.33;5.57;;;33.80;59.00;;;;;;4993284;28;20077;-88
2022/08/26 07:43:17;;;;;;;18.20;6.28;;;33.90;58.20;;;;;;4994068;28;20084;-81
2022/08/26 07:45:43;;;;;;;12.65;5.47;;;34.00;59.00;;;;;;4976570;28;20425;-80
2022/08/26 07:48:09;;;;;;;17.10;5.90;;;34.00;58.70;;;;;;4992928;28;20030;-85
2022/08/26 07:50:35;;;;;;;10.10;5.00;;;34.10;59.00;;;;;;4976960;28;20077;-84
2022/08/26 07:53:01;;;;;;;15.85;5.68;;;34.10;59.20;;;;;;4992884;28;20023;-84
2022/08/26 07:55:28;;;;;;;16.00;5.85;;;34.20;58.20;;;;;;4994291;28;20022;-88
2022/08/26 07:57:54;;;;;;;19.70;5.95;;;34.30;57.60;;;;;;4976340;28;20381;-80
2022/08/26 08:00:20;;;;;;;16.30;5.97;;;34.20;57.20;;;;;;4977390;28;20034;-80
2022/08/26 08:02:46;;;;;;;17.30;6.10;;;34.20;56.50;;;;;;4976899;28;20422;-81
2022/08/26 08:05:15;;;;;;;14.93;5.20;;;34.20;56.90;;;;;;4976357;28;20046;-81
2022/08/26 08:07:43;;;;;;;12.63;5.47;;;34.30;57.20;;;;;;4976194;28;20421;-84
2022/08/26 08:10:16;;;;;;;16.10;5.05;;;34.60;57.90;;;;;;4994188;28;20109;-82
2022/08/26 08:12:42;;;;;;;13.63;5.65;;;34.60;55.40;;;;;;4977022;28;20062;-83
2022/08/26 08:15:12;;;;;;;11.85;4.97;;;34.40;56.30;;;;;;4993009;28;20129;-90
2022/08/26 08:17:40;;;;;;;17.58;5.63;;;34.40;54.80;;;;;;4977174;28;20026;-86
2022/08/26 08:20:07;;;;;;;12.63;5.20;;;33.90;54.30;;;;;;4976909;28;20118;-87
2022/08/26 08:22:34;;;;;;;12.32;5.25;;;33.90;55.20;;;;;;4976823;28;20031;-79
2022/08/26 08:25:00;;;;;;;17.40;5.00;;;34.20;56.50;;;;;;4976407;28;20121;-91
2022/08/26 08:27:26;;;;;;;13.45;4.90;;;34.50;54.20;;;;;;4993268;28;20121;-93
2022/08/26 08:29:53;;;;;;;14.30;5.30;;;34.60;54.30;;;;;;4976712;28;20069;-84
2022/08/26 08:32:20;;;;;;;11.73;5.32;;;34.60;54.40;;;;;;4976695;28;20034;-84
2022/08/26 08:34:45;;;;;;;15.98;5.00;;;34.80;55.00;;;;;;4976544;28;20023;-88
2022/08/26 08:37:11;;;;;;;13.38;5.57;;;34.50;55.40;;;;;;4976487;28;20444;-90
2022/08/26 08:39:37;;;;;;;14.43;5.53;;;34.70;55.70;;;;;;4977225;28;20470;-90
2022/08/26 08:42:12;;;;;;;12.82;4.78;;;34.80;53.20;;;;;;4980365;28;20121;-83
2022/08/26 08:44:43;;;;;;;11.40;5.32;;;34.50;53.40;;;;;;4996192;28;20121;-84
2022/08/26 08:47:23;;;;;;;13.38;4.93;;;34.70;54.40;;;;;;4980072;28;20050;-83
2022/08/26 08:49:53;;;;;;;11.07;5.70;;;34.90;54.20;;;;;;4997309;28;20038;-83
2022/08/26 08:52:34;;;;;;;19.73;5.00;;;35.30;54.50;;;;;;4980348;28;20426;-81
2022/08/26 08:55:01;;;;;;;14.98;5.35;;;35.70;53.30;;;;;;4996042;28;20026;-83
2022/08/26 08:57:54;;;;;;;10.77;4.82;;;35.90;51.80;;;;;;4980039;28;20034;-88
2022/08/26 09:00:23;;;;;;;16.05;5.80;;;36.10;51.50;;;;;;4972716;28;20121;-90
2022/08/26 09:03:02;;;;;;;13.95;5.15;;;35.70;50.80;;;;;;4980003;28;20066;-86
2022/08/26 09:05:38;;;;;;;12.35;4.90;;;35.60;52.50;;;;;;4980241;28;20037;-90
2022/08/26 09:08:09;;;;;;;12.13;5.20;;;35.80;52.90;;;;;;4980156;28;20029;-87
2022/08/26 09:10:36;;;;;;;12.95;5.78;;;35.80;52.60;;;;;;4980164;28;20030;-89
2022/08/26 09:13:08;;;;;;;12.13;5.25;;;36.10;53.30;;;;;;4996080;28;20046;-86
2022/08/26 09:15:49;;;;;;;11.98;5.07;;;36.30;52.60;;;;;;4979826;28;20093;-84
2022/08/26 09:18:33;;;;;;;12.85;4.85;;;36.00;53.00;;;;;;4995680;28;20389;-91
2022/08/26 09:21:02;;;;;;;18.70;5.47;;;36.10;51.90;;;;;;4995866;28;20030;-82
2022/08/26 09:23:29;;;;;;;16.42;5.10;;;35.90;51.60;;;;;;4979460;28;20042;-86
2022/08/26 09:25:59;;;;;;;20.92;5.57;;;35.90;52.80;;;;;;4979407;28;20031;-85
2022/08/26 09:28:27;;;;;;;13.45;5.30;;;35.90;53.30;;;;;;4979508;28;20026;-91
2022/08/26 09:30:58;;;;;;;14.30;5.65;;;36.10;53.50;;;;;;4996828;28;20046;-87
2022/08/26 09:33:29;;;;;;;17.65;5.45;;;36.20;53.30;;;;;;4996313;28;20381;-89
2022/08/26 09:36:17;;;;;;;17.88;5.43;;;36.30;53.10;;;;;;4979428;28;20026;-88
2022/08/26 09:38:43;;;;;;;18.55;5.78;;;36.10;52.60;;;;;;4979449;28;20033;-88
2022/08/26 09:41:59;;;;;;;17.60;5.70;;;35.90;53.80;;;;;;4979847;28;20026;-91
2022/08/26 09:44:29;;;;;;;17.27;5.60;;;36.00;53.40;;;;;;4920655;29;20039;-90
2022/08/26 09:46:58;;;;;;;16.67;5.13;;;36.30;53.30;;;;;;4920669;29;20495;-84
2022/08/26 09:49:38;;;;;;;14.48;5.30;;;36.50;53.10;;;;;;4920689;29;20035;-85
2022/08/26 09:52:04;;;;;;;20.20;5.75;;;36.50;52.00;;;;;;4920722;29;20044;-83
2022/08/26 09:54:30;;;;;;;16.50;5.70;;;36.70;53.20;;;;;;4920539;29;20043;-90
2022/08/26 09:57:16;;;;;;;11.05;4.88;;;36.80;52.60;;;;;;4920830;29;20036;-91
2022/08/26 09:59:42;;;;;;;14.73;5.13;;;36.60;52.90;;;;;;4920831;29;20043;-90
2022/08/26 10:02:28;;;;;;;11.63;5.22;;;36.20;52.40;;;;;;4920643;29;20032;-93
2022/08/26 10:04:56;;;;;;;11.65;5.70;;;36.40;53.00;;;;;;4920601;29;20044;-85
2022/08/26 10:07:40;;;;;;;14.35;5.38;;;36.80;53.10;;;;;;4920714;29;20516;-89
2022/08/26 10:10:20;;;;;;;14.82;5.50;;;36.90;53.20;;;;;;4920665;29;20131;-89
2022/08/26 10:12:58;;;;;;;14.90;5.18;;;37.00;52.90;;;;;;4920385;29;20043;-85
2022/08/26 10:15:26;;;;;;;13.68;5.78;;;37.10;52.50;;;;;;4920103;29;20131;-82
2022/08/26 10:18:06;;;;;;;15.77;5.82;;;37.30;54.10;;;;;;4959430;28;20117;-82
2022/08/26 10:20:35;;;;;;;;;;;37.50;53.00;;;;;;4994832;28;20023;-82
2022/08/26 10:23:11;;;;;;;13.73;5.25;;;37.50;52.60;;;;;;4978313;28;19913;-83
2022/08/26 10:25:58;;;;;;;15.38;5.88;;;37.70;52.30;;;;;;4978040;28;20041;-82
2022/08/26 10:28:34;;;;;;;11.77;5.53;;;37.70;52.30;;;;;;4995535;28;20022;-81
2022/08/26 10:31:11;;;;;;;14.32;4.95;;;37.90;52.70;;;;;;4995414;28;20035;-81
2022/08/26 10:33:38;;;;;;;11.63;5.93;;;38.00;52.30;;;;;;4994040;28;20054;-82
2022/08/26 10:36:47;;;;;;;15.52;6.43;;;38.00;52.00;;;;;;4977580;28;20073;-81
2022/08/26 10:39:00;;;;;;;14.43;6.60;;;38.30;52.30;;;;;;4994898;28;20027;-82
2022/08/26 10:41:26;;;;;;;;;;;38.60;52.00;;;;;;4978803;28;20137;-82
2022/08/26 10:44:01;;;;;;;13.35;5.15;;;38.80;50.80;;;;;;4995416;28;19914;-86
2022/08/26 10:46:48;;;;;;;15.75;5.68;;;38.80;51.70;;;;;;4978103;28;20160;-89
2022/08/26 10:49:16;;;;;;;19.65;5.32;;;38.80;51.90;;;;;;4978025;28;20038;-91
2022/08/26 10:51:58;;;;;;;14.32;4.85;;;39.00;51.80;;;;;;4977983;28;20080;-90
2022/08/26 10:54:39;;;;;;;11.65;5.50;;;39.20;51.40;;;;;;4994063;28;20027;-87
2022/08/26 10:57:18;;;;;;;12.38;5.10;;;39.40;51.20;;;;;;4978465;28;20117;-87
2022/08/26 10:59:46;;;;;;;17.52;5.38;;;39.40;50.20;;;;;;4977972;28;20027;-86
2022/08/26 11:02:32;;;;;;;13.23;5.50;;;39.40;51.60;;;;;;4993621;28;20026;-85
2022/08/26 11:05:21;;;;;;;19.42;5.60;;;39.30;50.50;;;;;;4995555;28;20128;-88
2022/08/26 11:07:51;;;;;;;11.73;4.53;;;39.10;49.90;;;;;;4977934;28;20053;-83
2022/08/26 11:10:20;;;;;;;;;;;38.90;50.20;;;;;;4977912;28;20084;-84
2022/08/26 11:12:50;;;;;;;14.20;4.68;;;38.70;50.30;;;;;;4977385;28;20326;-84
2022/08/26 11:15:19;;;;;;;13.30;4.68;;;38.40;50.10;;;;;;4994498;28;20062;-81
2022/08/26 11:17:45;;;;;;;13.10;4.57;;;38.20;50.70;;;;;;4994673;28;20062;-82
2022/08/26 11:20:29;;;;;;;13.30;4.90;;;38.20;50.50;;;;;;4994399;28;20276;-84
2022/08/26 11:23:16;;;;;;;14.38;4.80;;;38.20;50.80;;;;;;4993617;28;20025;-84
2022/08/26 11:26:06;;;;;;;13.90;4.80;;;38.30;51.00;;;;;;4977289;28;20579;-88
2022/08/26 11:28:49;;;;;;;13.43;5.07;;;38.30;49.40;;;;;;4993636;28;20030;-85
2022/08/26 11:31:24;;;;;;;17.25;4.95;;;38.00;50.20;;;;;;4995096;28;20415;-83
2022/08/26 11:33:58;;;;;;;12.35;4.35;;;37.90;50.70;;;;;;4993059;28;20137;-81
2022/08/26 11:36:33;;;;;;;12.10;4.30;;;37.80;47.80;;;;;;4993330;28;20088;-81
2022/08/26 11:39:01;;;;;;;16.95;4.43;;;37.70;48.80;;;;;;4993430;28;20030;-92
2022/08/26 11:41:28;;;;;;;11.20;4.85;;;37.70;47.70;;;;;;4977107;28;20057;-90
2022/08/26 11:43:56;;;;;;;12.75;3.88;;;37.70;48.10;;;;;;4977078;28;20037;-86
2022/08/26 11:46:30;;;;;;;17.83;4.50;;;37.90;48.80;;;;;;4994398;28;20108;-85
2022/08/26 11:49:01;;;;;;;21.33;4.75;;;38.00;48.50;;;;;;4976890;28;20112;-83
2022/08/26 11:51:27;;;;;;;11.43;4.90;;;37.70;46.70;;;;;;4977552;28;20381;-89
2022/08/26 11:54:09;;;;;;;12.98;4.18;;;37.30;47.30;;;;;;4994073;28;20473;-82
2022/08/26 11:56:36;;;;;;;12.18;4.10;;;37.50;48.80;;;;;;4976998;28;20076;-90
2022/08/26 11:59:10;;;;;;;15.07;4.32;;;37.90;49.10;;;;;;4976908;28;20389;-82
2022/08/26 12:01:39;;;;;;;15.45;4.40;;;38.20;47.40;;;;;;4976659;28;20031;-80
2022/08/26 12:04:07;;;;;;;10.43;4.07;;;38.10;46.00;;;;;;4976390;28;20049;-79
2022/08/26 12:06:39;;;;;;;14.45;3.70;;;38.00;45.80;;;;;;4976586;28;20022;-90
2022/08/26 12:09:12;;;;;;;11.18;4.22;;;38.00;46.60;;;;;;4993028;28;20027;-82
2022/08/26 12:11:38;;;;;;;14.80;4.30;;;38.10;45.50;;;;;;4977281;28;20553;-83
2022/08/26 12:14:07;;;;;;;12.05;3.90;;;38.10;46.50;;;;;;4976196;28;20114;-84
2022/08/26 12:16:36;;;;;;;7.90;3.60;;;38.10;46.50;;;;;;4979979;28;20046;-83
2022/08/26 12:19:41;;;;;;;10.23;4.53;;;38.00;46.90;;;;;;4980499;28;20371;-81
2022/08/26 12:22:18;;;;;;;10.90;3.88;;;37.80;45.60;;;;;;4921577;29;20468;-81
2022/08/26 12:24:50;;;;;;;11.05;3.78;;;37.90;46.00;;;;;;4921664;29;20123;-81
2022/08/26 12:27:22;;;;;;;9.63;3.88;;;38.10;45.80;;;;;;4937820;28;20518;-81
2022/08/26 12:30:08;;;;;;;10.80;3.50;;;38.20;44.80;;;;;;4921652;29;20027;-89
2022/08/26 12:32:37;;;;;;;9.98;3.88;;;38.00;43.80;;;;;;4938018;28;20145;-85
2022/08/26 12:35:06;;;;;;;11.45;3.95;;;38.00;46.10;;;;;;4937438;29;20513;-82
2022/08/26 12:37:36;;;;;;;11.98;3.90;;;38.10;45.30;;;;;;4937530;29;20031;-81
2022/08/26 12:40:26;;;;;;;15.50;4.13;;;38.40;46.20;;;;;;4937414;29;20079;-83
2022/08/26 12:42:52;;;;;;;12.93;3.70;;;38.50;45.70;;;;;;4921723;29;20139;-81
2022/08/26 12:45:30;;;;;;;10.20;3.83;;;38.60;45.40;;;;;;4937581;29;20116;-83
2022/08/26 12:48:04;;;;;;;12.45;4.28;;;38.60;43.90;;;;;;4921697;29;20035;-85
2022/08/26 12:50:34;;;;;;;9.23;3.67;;;38.70;44.20;;;;;;4937777;29;20070;-85
2022/08/26 12:53:10;;;;;;;12.98;4.13;;;38.90;46.20;;;;;;4971002;28;20485;-82
2022/08/26 12:55:55;;;;;;;16.75;4.28;;;38.80;44.20;;;;;;4996108;28;20110;-84